sensor_id;sensor_type;location;lat;lon;timestamp;temperature;humidity
22629;DHT22;11481;53.694;9.910;2024-02-21T00:01:15;9.30;99.90
22629;DHT22;11481;53.694;9.910;2024-02-21T00:03:43;9.30;99.90
22629;DHT22;11481;53.694;9.910;2024-02-21T00:06:10;9.30;99.90
22629;DHT22;11481;53.694;9.910;2024-02-21T00:08:37;9.70;99.90
22629;DHT22;11481;53.694;9.910;2024-02-21T00:11:04;9.80;99.90
22629;DHT22;11481;53.694;9.910;2024-02-21T00:13:31;9.30;99.90
22629;DHT22;11481;53.694;9.910;2024-02-21T00:15:59;9.30;99.90
22629;DHT22;11481;53.694;9.910;2024-02-21T00:18:26;9.30;99.90
22629;DHT22;11481;53.694;9.910;2024-02-21T00:20:56;9.30;99.90
22629;DHT22;11481;53.694;9.910;2024-02-21T00:23:22;9.30;99.90
22629;DHT22;11481;53.694;9.910;2024-02-21T00:25:49;9.30;99.90
22629;DHT22;11481;53.694;9.910;2024-02-21T00:28:16;9.20;99.90
22629;DHT22;11481;53.694;9.910;2024-02-21T00:30:43;9.30;99.90
22629;DHT22;11481;53.694;9.910;2024-02-21T00:33:10;9.30;99.90
22629;DHT22;11481;53.694;9.910;2024-02-21T00:35:37;11.10;99.90
22629;DHT22;11481;53.694;9.910;2024-02-21T00:38:04;9.30;99.90
22629;DHT22;11481;53.694;9.910;2024-02-21T00:40:31;9.30;99.90
22629;DHT22;11481;53.694;9.910;2024-02-21T00:42:58;9.20;99.90
22629;DHT22;11481;53.694;9.910;2024-02-21T00:45:27;9.20;99.90
22629;DHT22;11481;53.694;9.910;2024-02-21T00:47:54;9.70;99.90
22629;DHT22;11481;53.694;9.910;2024-02-21T00:50:21;9.80;99.90
22629;DHT22;11481;53.694;9.910;2024-02-21T00:52:48;9.30;99.90
22629;DHT22;11481;53.694;9.910;2024-02-21T00:55:15;9.30;99.90
22629;DHT22;11481;53.694;9.910;2024-02-21T00:57:42;9.30;99.90
22629;DHT22;11481;53.694;9.910;2024-02-21T01:00:09;9.30;99.90
22629;DHT22;11481;53.694;9.910;2024-02-21T01:02:36;9.30;99.90
22629;DHT22;11481;53.694;9.910;2024-02-21T01:05:03;9.30;99.90
22629;DHT22;11481;53.694;9.910;2024-02-21T01:07:30;9.40;99.90
22629;DHT22;11481;53.694;9.910;2024-02-21T01:09:57;9.30;99.90
22629;DHT22;11481;53.694;9.910;2024-02-21T01:12:24;9.30;99.90
22629;DHT22;11481;53.694;9.910;2024-02-21T01:14:51;9.40;99.90
22629;DHT22;11481;53.694;9.910;2024-02-21T01:17:17;9.40;99.90
22629;DHT22;11481;53.694;9.910;2024-02-21T01:19:46;9.30;99.90
22629;DHT22;11481;53.694;9.910;2024-02-21T01:22:13;9.40;99.90
22629;DHT22;11481;53.694;9.910;2024-02-21T01:24:41;9.40;99.90
22629;DHT22;11481;53.694;9.910;2024-02-21T01:27:09;9.40;99.90
22629;DHT22;11481;53.694;9.910;2024-02-21T01:29:36;9.40;99.90
22629;DHT22;11481;53.694;9.910;2024-02-21T01:32:05;9.30;99.90
22629;DHT22;11481;53.694;9.910;2024-02-21T01:34:35;9.30;99.90
22629;DHT22;11481;53.694;9.910;2024-02-21T01:37:07;9.30;99.90
22629;DHT22;11481;53.694;9.910;2024-02-21T01:39:40;9.30;99.90
22629;DHT22;11481;53.694;9.910;2024-02-21T01:42:07;9.50;99.90
22629;DHT22;11481;53.694;9.910;2024-02-21T01:44:37;9.30;99.90
22629;DHT22;11481;53.694;9.910;2024-02-21T01:47:11;9.30;99.90
22629;DHT22;11481;53.694;9.910;2024-02-21T01:49:47;9.20;99.90
22629;DHT22;11481;53.694;9.910;2024-02-21T01:52:17;9.10;99.90
22629;DHT22;11481;53.694;9.910;2024-02-21T01:54:59;9.10;99.90
22629;DHT22;11481;53.694;9.910;2024-02-21T01:57:30;9.10;99.90
22629;DHT22;11481;53.694;9.910;2024-02-21T01:59:58;9.20;99.90
22629;DHT22;11481;53.694;9.910;2024-02-21T02:02:29;9.20;99.90
22629;DHT22;11481;53.694;9.910;2024-02-21T02:05:02;9.10;99.90
22629;DHT22;11481;53.694;9.910;2024-02-21T02:07:42;9.20;99.90
22629;DHT22;11481;53.694;9.910;2024-02-21T02:10:15;9.10;99.90
22629;DHT22;11481;53.694;9.910;2024-02-21T02:12:42;9.10;99.90
22629;DHT22;11481;53.694;9.910;2024-02-21T02:15:13;9.10;99.90
22629;DHT22;11481;53.694;9.910;2024-02-21T02:17:45;9.20;99.90
22629;DHT22;11481;53.694;9.910;2024-02-21T02:20:14;9.10;99.90
22629;DHT22;11481;53.694;9.910;2024-02-21T02:22:43;9.10;99.90
22629;DHT22;11481;53.694;9.910;2024-02-21T02:25:10;10.00;99.90
22629;DHT22;11481;53.694;9.910;2024-02-21T02:27:46;9.20;99.90
22629;DHT22;11481;53.694;9.910;2024-02-21T02:30:13;9.10;99.90
22629;DHT22;11481;53.694;9.910;2024-02-21T02:32:46;9.10;99.90
22629;DHT22;11481;53.694;9.910;2024-02-21T02:35:13;9.10;99.90
22629;DHT22;11481;53.694;9.910;2024-02-21T02:37:40;9.10;99.90
22629;DHT22;11481;53.694;9.910;2024-02-21T02:40:07;9.10;99.90
22629;DHT22;11481;53.694;9.910;2024-02-21T02:42:34;9.00;99.90
22629;DHT22;11481;53.694;9.910;2024-02-21T02:45:01;9.00;99.90
22629;DHT22;11481;53.694;9.910;2024-02-21T02:47:27;9.00;99.90
22629;DHT22;11481;53.694;9.910;2024-02-21T02:49:54;9.10;99.90
22629;DHT22;11481;53.694;9.910;2024-02-21T02:52:22;9.00;99.90
22629;DHT22;11481;53.694;9.910;2024-02-21T02:54:48;9.00;99.90
22629;DHT22;11481;53.694;9.910;2024-02-21T02:57:18;9.00;99.90
22629;DHT22;11481;53.694;9.910;2024-02-21T02:59:48;9.10;99.90
22629;DHT22;11481;53.694;9.910;2024-02-21T03:02:16;9.00;99.90
22629;DHT22;11481;53.694;9.910;2024-02-21T03:04:43;9.70;99.90
22629;DHT22;11481;53.694;9.910;2024-02-21T03:07:10;9.00;99.90
22629;DHT22;11481;53.694;9.910;2024-02-21T03:09:38;9.00;99.90
22629;DHT22;11481;53.694;9.910;2024-02-21T03:12:06;9.00;99.90
22629;DHT22;11481;53.694;9.910;2024-02-21T03:14:33;9.10;99.90
22629;DHT22;11481;53.694;9.910;2024-02-21T03:16:59;9.10;99.90
22629;DHT22;11481;53.694;9.910;2024-02-21T03:19:26;9.10;99.90
22629;DHT22;11481;53.694;9.910;2024-02-21T03:21:55;9.10;99.90
22629;DHT22;11481;53.694;9.910;2024-02-21T03:24:22;9.10;99.90
22629;DHT22;11481;53.694;9.910;2024-02-21T03:26:50;9.10;99.90
22629;DHT22;11481;53.694;9.910;2024-02-21T03:29:32;9.20;99.90
22629;DHT22;11481;53.694;9.910;2024-02-21T03:31:59;9.10;99.90
22629;DHT22;11481;53.694;9.910;2024-02-21T03:34:29;9.10;99.90
22629;DHT22;11481;53.694;9.910;2024-02-21T03:37:01;9.10;99.90
22629;DHT22;11481;53.694;9.910;2024-02-21T03:39:31;9.10;99.90
22629;DHT22;11481;53.694;9.910;2024-02-21T03:41:59;9.20;99.90
22629;DHT22;11481;53.694;9.910;2024-02-21T03:44:36;9.20;99.90
22629;DHT22;11481;53.694;9.910;2024-02-21T03:47:22;9.20;99.90
22629;DHT22;11481;53.694;9.910;2024-02-21T03:49:53;9.10;99.90
22629;DHT22;11481;53.694;9.910;2024-02-21T03:52:42;9.10;99.90
22629;DHT22;11481;53.694;9.910;2024-02-21T03:55:19;9.20;99.90
22629;DHT22;11481;53.694;9.910;2024-02-21T03:57:54;9.10;99.90
22629;DHT22;11481;53.694;9.910;2024-02-21T04:00:21;9.10;99.90
22629;DHT22;11481;53.694;9.910;2024-02-21T04:02:54;9.10;99.90
22629;DHT22;11481;53.694;9.910;2024-02-21T04:05:36;9.10;99.90
22629;DHT22;11481;53.694;9.910;2024-02-21T04:08:07;9.10;99.90
22629;DHT22;11481;53.694;9.910;2024-02-21T04:10:35;9.10;99.90
22629;DHT22;11481;53.694;9.910;2024-02-21T04:13:04;9.00;99.90
22629;DHT22;11481;53.694;9.910;2024-02-21T04:15:41;9.10;99.90
22629;DHT22;11481;53.694;9.910;2024-02-21T04:18:11;9.20;99.90
22629;DHT22;11481;53.694;9.910;2024-02-21T04:20:41;9.10;99.90
22629;DHT22;11481;53.694;9.910;2024-02-21T04:23:18;9.10;99.90
22629;DHT22;11481;53.694;9.910;2024-02-21T04:25:45;9.10;99.90
22629;DHT22;11481;53.694;9.910;2024-02-21T04:28:26;9.10;99.90
22629;DHT22;11481;53.694;9.910;2024-02-21T04:30:53;9.10;99.90
22629;DHT22;11481;53.694;9.910;2024-02-21T04:33:34;9.10;99.90
22629;DHT22;11481;53.694;9.910;2024-02-21T04:36:16;9.20;99.90
22629;DHT22;11481;53.694;9.910;2024-02-21T04:39:00;9.10;99.90
22629;DHT22;11481;53.694;9.910;2024-02-21T04:41:47;9.10;99.90
22629;DHT22;11481;53.694;9.910;2024-02-21T04:44:22;9.00;99.90
22629;DHT22;11481;53.694;9.910;2024-02-21T04:47:11;9.10;99.90
22629;DHT22;11481;53.694;9.910;2024-02-21T04:49:42;9.00;99.90
22629;DHT22;11481;53.694;9.910;2024-02-21T04:52:09;9.00;99.90
22629;DHT22;11481;53.694;9.910;2024-02-21T04:54:36;9.00;99.90
22629;DHT22;11481;53.694;9.910;2024-02-21T04:57:22;9.00;99.90
22629;DHT22;11481;53.694;9.910;2024-02-21T05:00:02;9.00;99.90
22629;DHT22;11481;53.694;9.910;2024-02-21T05:05:43;8.90;99.90
22629;DHT22;11481;53.694;9.910;2024-02-21T05:08:12;8.90;99.90
22629;DHT22;11481;53.694;9.910;2024-02-21T05:14:02;8.90;99.90
22629;DHT22;11481;53.694;9.910;2024-02-21T05:16:31;8.90;99.90
22629;DHT22;11481;53.694;9.910;2024-02-21T05:19:02;8.90;99.90
22629;DHT22;11481;53.694;9.910;2024-02-21T05:21:44;8.90;99.90
22629;DHT22;11481;53.694;9.910;2024-02-21T05:24:11;8.90;99.90
22629;DHT22;11481;53.694;9.910;2024-02-21T05:26:48;8.90;99.90
22629;DHT22;11481;53.694;9.910;2024-02-21T05:29:18;9.00;99.90
22629;DHT22;11481;53.694;9.910;2024-02-21T05:34:26;8.90;99.90
22629;DHT22;11481;53.694;9.910;2024-02-21T05:37:06;8.90;99.90
22629;DHT22;11481;53.694;9.910;2024-02-21T05:39:33;8.90;99.90
22629;DHT22;11481;53.694;9.910;2024-02-21T05:42:00;8.90;99.90
22629;DHT22;11481;53.694;9.910;2024-02-21T05:44:31;8.80;99.90
22629;DHT22;11481;53.694;9.910;2024-02-21T05:47:02;8.90;99.90
22629;DHT22;11481;53.694;9.910;2024-02-21T05:49:30;8.90;99.90
22629;DHT22;11481;53.694;9.910;2024-02-21T05:51:57;8.90;99.90
22629;DHT22;11481;53.694;9.910;2024-02-21T05:54:29;8.80;99.90
22629;DHT22;11481;53.694;9.910;2024-02-21T05:57:05;8.90;99.90
22629;DHT22;11481;53.694;9.910;2024-02-21T05:59:38;8.90;99.90
22629;DHT22;11481;53.694;9.910;2024-02-21T06:02:20;8.90;99.90
22629;DHT22;11481;53.694;9.910;2024-02-21T06:04:48;8.90;99.90
22629;DHT22;11481;53.694;9.910;2024-02-21T06:07:14;8.90;99.90
22629;DHT22;11481;53.694;9.910;2024-02-21T06:09:42;8.80;99.90
22629;DHT22;11481;53.694;9.910;2024-02-21T06:12:09;8.90;99.90
22629;DHT22;11481;53.694;9.910;2024-02-21T06:15:05;9.50;99.90
22629;DHT22;11481;53.694;9.910;2024-02-21T06:17:37;8.90;99.90
22629;DHT22;11481;53.694;9.910;2024-02-21T06:20:05;8.90;99.90
22629;DHT22;11481;53.694;9.910;2024-02-21T06:22:37;8.90;99.90
22629;DHT22;11481;53.694;9.910;2024-02-21T06:25:09;8.90;99.90
22629;DHT22;11481;53.694;9.910;2024-02-21T06:27:37;8.90;99.90
22629;DHT22;11481;53.694;9.910;2024-02-21T06:30:05;8.90;99.90
22629;DHT22;11481;53.694;9.910;2024-02-21T06:32:42;8.90;99.90
22629;DHT22;11481;53.694;9.910;2024-02-21T06:35:12;8.90;99.90
22629;DHT22;11481;53.694;9.910;2024-02-21T06:37:39;8.90;99.90
22629;DHT22;11481;53.694;9.910;2024-02-21T06:40:08;8.90;99.90
22629;DHT22;11481;53.694;9.910;2024-02-21T06:42:48;9.00;99.90
22629;DHT22;11481;53.694;9.910;2024-02-21T06:45:22;9.00;99.90
22629;DHT22;11481;53.694;9.910;2024-02-21T06:47:56;8.90;99.90
22629;DHT22;11481;53.694;9.910;2024-02-21T06:50:28;10.50;99.90
22629;DHT22;11481;53.694;9.910;2024-02-21T06:53:25;9.00;99.90
22629;DHT22;11481;53.694;9.910;2024-02-21T06:56:06;9.60;99.90
22629;DHT22;11481;53.694;9.910;2024-02-21T06:58:35;8.90;99.90
22629;DHT22;11481;53.694;9.910;2024-02-21T07:01:07;8.90;99.90
22629;DHT22;11481;53.694;9.910;2024-02-21T07:03:37;9.00;99.90
22629;DHT22;11481;53.694;9.910;2024-02-21T07:06:07;9.00;99.90
22629;DHT22;11481;53.694;9.910;2024-02-21T07:08:57;9.00;99.90
22629;DHT22;11481;53.694;9.910;2024-02-21T07:11:38;9.00;99.90
22629;DHT22;11481;53.694;9.910;2024-02-21T07:14:14;9.10;99.90
22629;DHT22;11481;53.694;9.910;2024-02-21T07:16:41;9.00;99.90
22629;DHT22;11481;53.694;9.910;2024-02-21T07:19:09;9.10;99.90
22629;DHT22;11481;53.694;9.910;2024-02-21T07:21:38;9.00;99.90
22629;DHT22;11481;53.694;9.910;2024-02-21T07:24:18;9.00;99.90
22629;DHT22;11481;53.694;9.910;2024-02-21T07:26:49;8.90;99.90
22629;DHT22;11481;53.694;9.910;2024-02-21T07:29:16;9.30;99.90
22629;DHT22;11481;53.694;9.910;2024-02-21T07:31:44;8.90;99.90
22629;DHT22;11481;53.694;9.910;2024-02-21T07:34:11;8.90;99.90
22629;DHT22;11481;53.694;9.910;2024-02-21T07:36:40;8.80;99.90
22629;DHT22;11481;53.694;9.910;2024-02-21T07:39:11;8.80;99.90
22629;DHT22;11481;53.694;9.910;2024-02-21T07:41:49;8.80;99.90
22629;DHT22;11481;53.694;9.910;2024-02-21T07:44:24;8.80;99.90
22629;DHT22;11481;53.694;9.910;2024-02-21T07:46:51;8.80;99.90
22629;DHT22;11481;53.694;9.910;2024-02-21T07:49:18;8.80;99.90
22629;DHT22;11481;53.694;9.910;2024-02-21T07:51:46;8.80;99.90
22629;DHT22;11481;53.694;9.910;2024-02-21T07:54:22;8.90;99.90
22629;DHT22;11481;53.694;9.910;2024-02-21T07:56:52;9.00;99.90
22629;DHT22;11481;53.694;9.910;2024-02-21T07:59:25;8.90;99.90
22629;DHT22;11481;53.694;9.910;2024-02-21T08:01:58;8.80;99.90
22629;DHT22;11481;53.694;9.910;2024-02-21T08:04:28;9.00;99.90
22629;DHT22;11481;53.694;9.910;2024-02-21T08:07:02;8.80;99.90
22629;DHT22;11481;53.694;9.910;2024-02-21T08:09:35;9.00;99.90
22629;DHT22;11481;53.694;9.910;2024-02-21T08:12:07;9.00;99.90
22629;DHT22;11481;53.694;9.910;2024-02-21T08:14:35;8.90;99.90
22629;DHT22;11481;53.694;9.910;2024-02-21T08:17:15;9.00;99.90
22629;DHT22;11481;53.694;9.910;2024-02-21T08:19:51;9.00;99.90
22629;DHT22;11481;53.694;9.910;2024-02-21T08:22:28;8.90;99.90
22629;DHT22;11481;53.694;9.910;2024-02-21T08:24:56;9.10;99.90
22629;DHT22;11481;53.694;9.910;2024-02-21T08:27:26;9.00;99.90
22629;DHT22;11481;53.694;9.910;2024-02-21T08:29:57;9.00;99.90
22629;DHT22;11481;53.694;9.910;2024-02-21T08:32:26;9.10;99.90
22629;DHT22;11481;53.694;9.910;2024-02-21T08:35:17;9.00;99.90
22629;DHT22;11481;53.694;9.910;2024-02-21T08:37:48;9.10;99.90
22629;DHT22;11481;53.694;9.910;2024-02-21T08:40:18;9.00;99.90
22629;DHT22;11481;53.694;9.910;2024-02-21T08:42:48;9.10;99.90
22629;DHT22;11481;53.694;9.910;2024-02-21T08:45:33;9.10;99.90
22629;DHT22;11481;53.694;9.910;2024-02-21T08:48:02;9.10;99.90
22629;DHT22;11481;53.694;9.910;2024-02-21T08:50:29;9.20;99.90
22629;DHT22;11481;53.694;9.910;2024-02-21T08:52:58;9.30;99.90
22629;DHT22;11481;53.694;9.910;2024-02-21T08:55:28;9.30;99.90
22629;DHT22;11481;53.694;9.910;2024-02-21T08:57:55;9.30;99.90
22629;DHT22;11481;53.694;9.910;2024-02-21T09:00:25;9.20;99.90
22629;DHT22;11481;53.694;9.910;2024-02-21T09:03:09;9.30;99.90
22629;DHT22;11481;53.694;9.910;2024-02-21T09:05:36;9.40;99.90
22629;DHT22;11481;53.694;9.910;2024-02-21T09:08:05;9.30;99.90
22629;DHT22;11481;53.694;9.910;2024-02-21T09:10:36;9.40;99.90
22629;DHT22;11481;53.694;9.910;2024-02-21T09:13:16;9.40;99.90
22629;DHT22;11481;53.694;9.910;2024-02-21T09:15:47;9.50;99.90
22629;DHT22;11481;53.694;9.910;2024-02-21T09:18:29;9.50;99.90
22629;DHT22;11481;53.694;9.910;2024-02-21T09:20:58;9.40;99.90
22629;DHT22;11481;53.694;9.910;2024-02-21T09:23:32;9.50;99.90
22629;DHT22;11481;53.694;9.910;2024-02-21T09:26:01;9.60;99.90
22629;DHT22;11481;53.694;9.910;2024-02-21T09:28:44;9.60;99.90
22629;DHT22;11481;53.694;9.910;2024-02-21T09:33:57;9.50;99.90
22629;DHT22;11481;53.694;9.910;2024-02-21T09:36:25;9.50;99.90
22629;DHT22;11481;53.694;9.910;2024-02-21T09:38:54;9.50;99.90
22629;DHT22;11481;53.694;9.910;2024-02-21T09:41:30;9.50;99.90
22629;DHT22;11481;53.694;9.910;2024-02-21T09:44:07;9.50;99.90
22629;DHT22;11481;53.694;9.910;2024-02-21T09:46:56;9.80;99.90
22629;DHT22;11481;53.694;9.910;2024-02-21T09:49:34;9.70;99.90
22629;DHT22;11481;53.694;9.910;2024-02-21T09:52:08;9.70;99.90
22629;DHT22;11481;53.694;9.910;2024-02-21T09:54:44;9.70;99.90
22629;DHT22;11481;53.694;9.910;2024-02-21T09:57:15;9.60;99.90
22629;DHT22;11481;53.694;9.910;2024-02-21T09:59:44;9.60;99.90
22629;DHT22;11481;53.694;9.910;2024-02-21T10:02:21;9.60;99.90
22629;DHT22;11481;53.694;9.910;2024-02-21T10:04:48;9.70;99.90
22629;DHT22;11481;53.694;9.910;2024-02-21T10:07:15;9.90;99.90
22629;DHT22;11481;53.694;9.910;2024-02-21T10:09:42;9.70;99.90
22629;DHT22;11481;53.694;9.910;2024-02-21T10:12:15;9.70;99.90
22629;DHT22;11481;53.694;9.910;2024-02-21T10:15:05;10.50;99.90
22629;DHT22;11481;53.694;9.910;2024-02-21T10:17:32;9.60;99.90
22629;DHT22;11481;53.694;9.910;2024-02-21T10:20:09;9.60;99.90
22629;DHT22;11481;53.694;9.910;2024-02-21T10:22:37;9.70;99.90
22629;DHT22;11481;53.694;9.910;2024-02-21T10:25:09;9.80;99.90
22629;DHT22;11481;53.694;9.910;2024-02-21T10:27:37;9.80;99.90
22629;DHT22;11481;53.694;9.910;2024-02-21T10:30:14;9.80;99.90
22629;DHT22;11481;53.694;9.910;2024-02-21T10:32:51;9.80;99.90
22629;DHT22;11481;53.694;9.910;2024-02-21T10:35:35;9.80;99.90
22629;DHT22;11481;53.694;9.910;2024-02-21T10:38:06;9.80;99.90
22629;DHT22;11481;53.694;9.910;2024-02-21T10:40:34;9.80;99.90
22629;DHT22;11481;53.694;9.910;2024-02-21T10:43:11;9.80;99.90
22629;DHT22;11481;53.694;9.910;2024-02-21T10:45:45;9.90;99.90
22629;DHT22;11481;53.694;9.910;2024-02-21T10:48:22;9.90;99.90
22629;DHT22;11481;53.694;9.910;2024-02-21T10:51:00;9.90;99.90
22629;DHT22;11481;53.694;9.910;2024-02-21T10:56:22;9.80;99.90
22629;DHT22;11481;53.694;9.910;2024-02-21T10:58:58;9.70;99.90
22629;DHT22;11481;53.694;9.910;2024-02-21T11:01:25;9.80;99.90
22629;DHT22;11481;53.694;9.910;2024-02-21T11:03:55;9.90;99.90
22629;DHT22;11481;53.694;9.910;2024-02-21T11:06:23;9.80;99.90
22629;DHT22;11481;53.694;9.910;2024-02-21T11:09:09;10.80;99.90
22629;DHT22;11481;53.694;9.910;2024-02-21T11:11:41;9.80;99.90
22629;DHT22;11481;53.694;9.910;2024-02-21T11:14:20;9.80;99.90
22629;DHT22;11481;53.694;9.910;2024-02-21T11:16:47;9.80;99.90
22629;DHT22;11481;53.694;9.910;2024-02-21T11:19:28;9.80;99.90
22629;DHT22;11481;53.694;9.910;2024-02-21T11:21:57;9.80;99.90
22629;DHT22;11481;53.694;9.910;2024-02-21T11:24:34;9.80;99.90
22629;DHT22;11481;53.694;9.910;2024-02-21T11:27:33;9.70;99.90
22629;DHT22;11481;53.694;9.910;2024-02-21T11:30:00;9.80;99.90
22629;DHT22;11481;53.694;9.910;2024-02-21T11:32:26;9.80;99.90
22629;DHT22;11481;53.694;9.910;2024-02-21T11:35:00;9.70;99.90
22629;DHT22;11481;53.694;9.910;2024-02-21T11:37:35;9.80;99.90
22629;DHT22;11481;53.694;9.910;2024-02-21T11:40:04;9.80;99.90
22629;DHT22;11481;53.694;9.910;2024-02-21T11:42:35;9.90;99.90
22629;DHT22;11481;53.694;9.910;2024-02-21T11:45:04;9.80;99.90
22629;DHT22;11481;53.694;9.910;2024-02-21T11:47:31;9.80;99.90
22629;DHT22;11481;53.694;9.910;2024-02-21T11:50:01;9.80;99.90
22629;DHT22;11481;53.694;9.910;2024-02-21T11:52:30;9.90;99.90
22629;DHT22;11481;53.694;9.910;2024-02-21T11:54:56;9.90;99.90
22629;DHT22;11481;53.694;9.910;2024-02-21T11:57:31;9.80;99.90
22629;DHT22;11481;53.694;9.910;2024-02-21T11:59:58;9.80;99.90
22629;DHT22;11481;53.694;9.910;2024-02-21T12:02:30;9.70;99.90
22629;DHT22;11481;53.694;9.910;2024-02-21T12:04:57;9.60;99.90
22629;DHT22;11481;53.694;9.910;2024-02-21T12:07:25;9.50;99.90
22629;DHT22;11481;53.694;9.910;2024-02-21T12:09:59;9.50;99.90
22629;DHT22;11481;53.694;9.910;2024-02-21T12:12:27;9.60;99.90
22629;DHT22;11481;53.694;9.910;2024-02-21T12:14:56;9.60;99.90
22629;DHT22;11481;53.694;9.910;2024-02-21T12:17:40;9.50;99.90
22629;DHT22;11481;53.694;9.910;2024-02-21T12:20:08;9.60;99.90
22629;DHT22;11481;53.694;9.910;2024-02-21T12:22:43;9.60;99.90
22629;DHT22;11481;53.694;9.910;2024-02-21T12:25:17;9.60;99.90
22629;DHT22;11481;53.694;9.910;2024-02-21T12:27:46;9.60;99.90
22629;DHT22;11481;53.694;9.910;2024-02-21T12:30:15;9.70;99.90
22629;DHT22;11481;53.694;9.910;2024-02-21T12:33:07;10.40;99.90
22629;DHT22;11481;53.694;9.910;2024-02-21T12:35:36;9.70;99.90
22629;DHT22;11481;53.694;9.910;2024-02-21T12:38:04;9.70;99.90
22629;DHT22;11481;53.694;9.910;2024-02-21T12:40:36;9.80;99.90
22629;DHT22;11481;53.694;9.910;2024-02-21T12:43:03;9.70;99.90
22629;DHT22;11481;53.694;9.910;2024-02-21T12:45:30;9.70;99.90
22629;DHT22;11481;53.694;9.910;2024-02-21T12:47:57;9.80;99.90
22629;DHT22;11481;53.694;9.910;2024-02-21T12:50:24;9.80;99.90
22629;DHT22;11481;53.694;9.910;2024-02-21T12:52:51;10.30;99.90
22629;DHT22;11481;53.694;9.910;2024-02-21T12:55:22;9.70;99.90
22629;DHT22;11481;53.694;9.910;2024-02-21T12:57:53;9.60;99.90
22629;DHT22;11481;53.694;9.910;2024-02-21T13:00:23;9.50;99.90
22629;DHT22;11481;53.694;9.910;2024-02-21T13:02:53;10.20;99.90
22629;DHT22;11481;53.694;9.910;2024-02-21T13:05:19;9.70;99.90
22629;DHT22;11481;53.694;9.910;2024-02-21T13:07:47;9.70;99.90
22629;DHT22;11481;53.694;9.910;2024-02-21T13:10:19;9.70;99.90
22629;DHT22;11481;53.694;9.910;2024-02-21T13:12:46;10.30;99.90
22629;DHT22;11481;53.694;9.910;2024-02-21T13:15:16;9.60;99.90
22629;DHT22;11481;53.694;9.910;2024-02-21T13:17:44;9.70;99.90
22629;DHT22;11481;53.694;9.910;2024-02-21T13:20:11;9.70;99.90
22629;DHT22;11481;53.694;9.910;2024-02-21T13:22:40;9.70;99.90
22629;DHT22;11481;53.694;9.910;2024-02-21T13:25:07;9.70;99.90
22629;DHT22;11481;53.694;9.910;2024-02-21T13:27:35;9.80;99.90
22629;DHT22;11481;53.694;9.910;2024-02-21T13:30:01;9.70;99.90
22629;DHT22;11481;53.694;9.910;2024-02-21T13:32:33;9.80;99.90
22629;DHT22;11481;53.694;9.910;2024-02-21T13:35:11;9.80;99.90
22629;DHT22;11481;53.694;9.910;2024-02-21T13:37:42;9.90;99.90
22629;DHT22;11481;53.694;9.910;2024-02-21T13:40:11;9.90;99.90
22629;DHT22;11481;53.694;9.910;2024-02-21T13:42:39;9.90;99.90
22629;DHT22;11481;53.694;9.910;2024-02-21T13:45:06;9.90;99.90
22629;DHT22;11481;53.694;9.910;2024-02-21T13:47:34;10.00;99.90
22629;DHT22;11481;53.694;9.910;2024-02-21T13:50:06;10.00;99.90
22629;DHT22;11481;53.694;9.910;2024-02-21T13:52:43;10.00;99.90
22629;DHT22;11481;53.694;9.910;2024-02-21T13:55:13;10.10;99.90
22629;DHT22;11481;53.694;9.910;2024-02-21T13:57:51;10.10;99.90
22629;DHT22;11481;53.694;9.910;2024-02-21T14:00:31;10.20;99.90
22629;DHT22;11481;53.694;9.910;2024-02-21T14:03:07;10.30;99.90
22629;DHT22;11481;53.694;9.910;2024-02-21T14:05:40;10.20;99.90
22629;DHT22;11481;53.694;9.910;2024-02-21T14:08:10;10.30;99.90
22629;DHT22;11481;53.694;9.910;2024-02-21T14:10:40;11.00;99.90
22629;DHT22;11481;53.694;9.910;2024-02-21T14:13:14;10.30;99.90
22629;DHT22;11481;53.694;9.910;2024-02-21T14:15:44;10.40;99.90
22629;DHT22;11481;53.694;9.910;2024-02-21T14:18:22;10.40;99.90
22629;DHT22;11481;53.694;9.910;2024-02-21T14:20:51;10.50;99.90
22629;DHT22;11481;53.694;9.910;2024-02-21T14:23:19;10.50;99.90
22629;DHT22;11481;53.694;9.910;2024-02-21T14:25:49;10.60;99.90
22629;DHT22;11481;53.694;9.910;2024-02-21T14:28:17;10.40;99.90
22629;DHT22;11481;53.694;9.910;2024-02-21T14:30:47;10.50;99.90
22629;DHT22;11481;53.694;9.910;2024-02-21T14:33:20;10.60;99.90
22629;DHT22;11481;53.694;9.910;2024-02-21T14:35:50;10.60;99.90
22629;DHT22;11481;53.694;9.910;2024-02-21T14:38:22;10.70;99.90
22629;DHT22;11481;53.694;9.910;2024-02-21T14:40:49;10.70;99.90
22629;DHT22;11481;53.694;9.910;2024-02-21T14:43:15;10.60;99.90
22629;DHT22;11481;53.694;9.910;2024-02-21T14:45:44;10.80;99.90
22629;DHT22;11481;53.694;9.910;2024-02-21T14:48:16;10.70;99.90
22629;DHT22;11481;53.694;9.910;2024-02-21T14:50:43;10.70;99.90
22629;DHT22;11481;53.694;9.910;2024-02-21T14:53:14;10.70;99.90
22629;DHT22;11481;53.694;9.910;2024-02-21T14:55:41;10.70;99.90
22629;DHT22;11481;53.694;9.910;2024-02-21T14:58:24;11.10;99.90
22629;DHT22;11481;53.694;9.910;2024-02-21T15:00:56;10.60;99.90
22629;DHT22;11481;53.694;9.910;2024-02-21T15:03:25;10.60;99.90
22629;DHT22;11481;53.694;9.910;2024-02-21T15:05:57;10.70;99.90
22629;DHT22;11481;53.694;9.910;2024-02-21T15:08:27;10.50;99.90
22629;DHT22;11481;53.694;9.910;2024-02-21T15:10:55;10.50;99.90
22629;DHT22;11481;53.694;9.910;2024-02-21T15:13:23;10.50;99.90
22629;DHT22;11481;53.694;9.910;2024-02-21T15:15:51;11.40;99.90
22629;DHT22;11481;53.694;9.910;2024-02-21T15:18:18;10.50;99.90
22629;DHT22;11481;53.694;9.910;2024-02-21T15:21:03;10.50;99.90
22629;DHT22;11481;53.694;9.910;2024-02-21T15:23:30;10.40;99.90
22629;DHT22;11481;53.694;9.910;2024-02-21T15:25:57;11.00;99.90
22629;DHT22;11481;53.694;9.910;2024-02-21T15:28:26;10.40;99.90
22629;DHT22;11481;53.694;9.910;2024-02-21T15:30:56;10.50;99.90
22629;DHT22;11481;53.694;9.910;2024-02-21T15:33:25;10.40;99.90
22629;DHT22;11481;53.694;9.910;2024-02-21T15:35:54;11.40;99.90
22629;DHT22;11481;53.694;9.910;2024-02-21T15:38:22;10.40;99.90
22629;DHT22;11481;53.694;9.910;2024-02-21T15:40:50;10.50;99.90
22629;DHT22;11481;53.694;9.910;2024-02-21T15:43:18;10.50;99.90
22629;DHT22;11481;53.694;9.910;2024-02-21T15:45:48;10.40;99.90
22629;DHT22;11481;53.694;9.910;2024-02-21T15:48:15;10.40;99.90
22629;DHT22;11481;53.694;9.910;2024-02-21T15:50:44;10.50;99.90
22629;DHT22;11481;53.694;9.910;2024-02-21T15:53:17;10.40;99.90
22629;DHT22;11481;53.694;9.910;2024-02-21T15:55:49;10.30;99.90
22629;DHT22;11481;53.694;9.910;2024-02-21T15:58:20;10.40;99.90
22629;DHT22;11481;53.694;9.910;2024-02-21T16:00:53;10.30;99.90
22629;DHT22;11481;53.694;9.910;2024-02-21T16:03:21;10.30;99.90
22629;DHT22;11481;53.694;9.910;2024-02-21T16:05:52;10.30;99.90
22629;DHT22;11481;53.694;9.910;2024-02-21T16:08:19;10.30;99.90
22629;DHT22;11481;53.694;9.910;2024-02-21T16:10:50;10.30;99.90
22629;DHT22;11481;53.694;9.910;2024-02-21T16:13:17;10.20;99.90
22629;DHT22;11481;53.694;9.910;2024-02-21T16:15:49;10.20;99.90
22629;DHT22;11481;53.694;9.910;2024-02-21T16:18:20;10.30;99.90
22629;DHT22;11481;53.694;9.910;2024-02-21T16:21:02;10.30;99.90
22629;DHT22;11481;53.694;9.910;2024-02-21T16:23:40;10.20;99.90